AirNav   Air Wisconsin Up To $57,000 Bonus
 
 1407 users online  

2A1 Jamestown Municipal Airport
Jamestown, Tennessee, USA

GOING TO JAMESTOWN?


FAA INFORMATION EFFECTIVE 08 OCTOBER 2020

Location

FAA Identifier: 2A1
Lat/Long: 36-20-58.9000N 084-56-47.9000W
36-20.981667N 084-56.798333W
36.3496944,-84.9466389
(estimated)
Elevation: 1693.8 ft. / 516.3 m (surveyed)
Variation: 05W (2020)
From city: 5 miles S of JAMESTOWN, TN
Time zone: UTC -5 (UTC -6 during Standard Time)
Zip code: 38556

Airport Operations

Airport use: Open to the public
Control tower: no
ARTCC: INDIANAPOLIS CENTER
FSS: NASHVILLE FLIGHT SERVICE STATION
NOTAMs facility: BNA (NOTAM-D service available)
Attendance: MON-SUN 0800-1600
Wind indicator: lighted
Segmented circle: yes
Lights: ACTVT REIL RWY 18 & 36; MIRL 18/36 - CTAF. MIRL 18/36 INCR INTST - CTAF. PAPI RWY 18 & 36 OPR CONSLY.
Beacon: white-green (lighted land airport)
Operates sunset to sunrise.

Airport Communications

CTAF/UNICOM: 122.8
WX AWOS-3 at 8A3 (18 nm W): 126.175 (931-823-3329)
WX AWOS-3 at SCX (19 nm E): 135.025 (423-569-6651)
  • APCH/DEP SVC PRVDD BY INDIANAPOLIS ARTCC ON FREQS 124.625/371.925 (LONDON 2 RCAG).

Nearby radio navigation aids

VOR radial/distance  VOR name  Freq  Var
LVTr145/17.6LIVINGSTON VOR/DME108.4002W
HCHr005/34.2HINCH MOUNTAIN VOR/DME117.6002W

 
NDB name  Hdg/Dist  Freq  Var  ID
HUCHN058/37.823303WHEM .... . --

Airport Services

Fuel available: 100LL
Parking: hangars and tiedowns
Airframe service: NONE
Powerplant service: MAJOR
Bottled oxygen: NONE
Bulk oxygen: NONE

Runway Information

Runway 18/36

Dimensions: 3498 x 75 ft. / 1066 x 23 m
Surface: asphalt, in fair condition
Weight bearing capacity: 
Single wheel: 17.0
Double wheel: 22.0
Runway edge lights: medium intensity
RUNWAY 18  RUNWAY 36
Latitude: 36-21.270410N36-20.693993N
Longitude: 084-56.796790W084-56.801522W
Elevation: 1693.8 ft.1677.9 ft.
Traffic pattern: leftleft
Runway heading: 185 magnetic, 180 true005 magnetic, 000 true
Markings: nonprecision, in fair conditionnonprecision, in fair condition
Visual slope indicator: 4-light PAPI on left (4.00 degrees glide path)4-light PAPI on left (4.00 degrees glide path)
Runway end identifier lights: yesyes
Touchdown point: yes, no lightsyes, no lights
Obstructions: 58 ft. tree, 1014 ft. from runway, 72 ft. left of centerline, 14:1 slope to clear75 ft. tree, 1608 ft. from runway, 182 ft. right of centerline, 19:1 slope to clear

Airport Ownership and Management from official FAA records

Ownership: Publicly-owned
Owner: CITY OF JAMESTOWN
CITY HALL PO BOX 670
JAMESTOWN, TN 38556
Phone 931-879-8815
Manager: RONNIE SEAGRAVES
125 AIRPORT RD
JAMESTOWN, TN 38556
Phone 931-879-8948
AFT HR - 931-879-5685.

Airport Operational Statistics

Aircraft based on the field: 11
Single engine airplanes: 11
    
Aircraft operations: avg 41/week *
59% transient general aviation
39% local general aviation
2% military
* for 12-month period ending 31 July 2019

Additional Remarks

FOR CD CTC INDIANAPOLIS ARTCC AT 317-247-2411.

Instrument Procedures

NOTE: All procedures below are presented as PDF files. If you need a reader for these files, you should download the free Adobe Reader.

NOT FOR NAVIGATION. Please procure official charts for flight.
FAA instrument procedures published for use from 08 October 2020 at 0901Z to 05 November 2020 at 0900Z.

 
IAPs - Instrument Approach Procedures
RNAV (GPS)-B   download (182KB)
RNAV (GPS)-C   download (209KB)
VOR-A **CHANGED**   download (176KB)
NOTE: Special Take-Off Minimums/Departure Procedures apply   download (126KB)

Other nearby airports with instrument procedures:

8A3 - Livingston Municipal Airport (18 nm W)
KSCX - Scott Municipal Airport (19 nm E)
KCSV - Crossville Memorial Airport-Whitson Field (25 nm S)
KRKW - Rockwood Municipal Airport (29 nm SE)
KEKQ - Wayne County Airport (31 nm N)
 
Loc | Ops | Rwys | IFR | FBO | Links
Com | Nav | Svcs | Stats | Notes
Area around 2A1 (Jamestown Municipal Airport)
 
Road maps at: MapQuest Bing Google
 
Aerial photo
WARNING: Photo may not be current or correct
Aerial photo of 2A1 (Jamestown Municipal Airport)
Photo by Marc Mueller

Do you have a better or more recent aerial photo of Jamestown Municipal Airport that you would like to share? If so, please send us your photo.

 
Sectional chart

 
Airport distance calculator
Flying to Jamestown Municipal Airport? Find the distance to fly.

From to 2A1

Sunrise and sunset
Times for 19-Oct-2020
 Local
(UTC-5)
 Zulu
(UTC)
Morning civil twilight06:2611:26
Sunrise06:5211:52
Sunset17:5722:57
Evening civil twilight18:2323:23

Current date and time
Zulu (UTC)  19-Oct-2020 21:55:28
Local (UTC-5)  19-Oct-2020 16:55:28
 
METAR
K8A3 
18nm W 
192135Z AUTO 23005KT 10SM SCT033 23/15 A3014 RMK A01
KSCX 
19nm E 
192135Z AUTO VRB04KT 10SM CLR 21/14 A3018 RMK A01
KCSV 
25nm S 
192053Z AUTO VRB03KT 10SM SCT037 BKN050 20/14 A3020 RMK AO2 SLP214 T02000139 55005
KRKW 
29nm SE 
192135Z AUTO 00000KT 10SM CLR 20/14 A3019 RMK A01
KEKQ 
31nm N 
192108Z AUTO 26012KT 10SM OVC035 23/17 A3017 RMK AO2 WSHFT 2048 PNO $
KSRB 
33nm SW 
192135Z AUTO 20007KT 10SM FEW047 SCT060 24/16 A3014 RMK A01
TAF
NOTAMs
Click for the latest NOTAMs
NOTAMs are issued by the DoD/FAA and will open in a separate window not controlled by AirNav.

 

 
 

FBO, Fuel Providers, and Aircraft Ground Support

  
 Business Name 
 
 Contact 
 
 Services / Description 
 
Fuel Prices
 
Comments
  
Jamestown Municipal Airport 931-879-8948
no information available

If you are affiliated with Jamestown Municipal Airport and would like to show here your services, contact info, web link, logo, and more, click here
100LL
PS $4.40 
 Updated 13-Oct-2020
 
   2 read write
PS=Pump service
Update Fuel Prices
 

Would you like to see your business listed on this page?

 If your business provides an interesting product or service to pilots, flight crews, aircraft, or users of the Jamestown Municipal Airport, you should consider listing it here.  To start the listing process, click on the button below
 
Add a business
 

Other Pages about Jamestown Municipal Airport

Update a link
 
Copyright © AirNav, LLC. All rights reserved. Privacy Policy  Contact